createdAt,value
2022-11-05T00:03:04.816Z,100260.22
2022-11-05T00:06:13.451Z,100268.66
2022-11-05T00:08:59.633Z,100268.31
2022-11-05T00:11:46.723Z,100268.13
2022-11-05T00:14:32.778Z,100269.84
2022-11-05T00:17:19.940Z,100262.75
2022-11-05T00:20:00.773Z,100264.94
2022-11-05T00:23:05.877Z,100258.66
2022-11-05T00:26:13.901Z,100255.88
2022-11-05T00:28:54.528Z,100249.66
2022-11-05T00:31:21.482Z,100251.50
2022-11-05T00:33:48.269Z,100247.06
2022-11-05T00:36:15.355Z,100243.50
2022-11-05T00:38:42.405Z,100250.25
2022-11-05T00:41:09.275Z,100260.00
2022-11-05T00:43:54.884Z,100256.38
2022-11-05T00:46:22.503Z,100255.09
2022-11-05T00:49:08.452Z,100259.00
2022-11-05T00:51:35.540Z,100268.25
2022-11-05T00:54:02.678Z,100268.38
2022-11-05T00:56:29.872Z,100287.75
2022-11-05T00:58:56.906Z,100286.25
2022-11-05T01:01:24.431Z,100289.09
2022-11-05T01:04:12.103Z,100274.81
2022-11-05T01:06:52.354Z,100284.50
2022-11-05T01:09:20.383Z,100290.75
2022-11-05T01:11:47.596Z,100288.91
2022-11-05T01:14:16.711Z,100298.47
2022-11-05T01:16:45.534Z,100302.06
2022-11-05T01:19:12.696Z,100300.19
2022-11-05T01:21:39.882Z,100296.53
2022-11-05T01:24:19.874Z,100297.41
2022-11-05T01:27:20.917Z,100299.97
2022-11-05T01:30:21.865Z,100315.41
2022-11-05T01:33:03.503Z,100319.81
2022-11-05T01:35:30.641Z,100317.38
2022-11-05T01:37:57.568Z,100315.63
2022-11-05T01:40:25.239Z,100308.25
2022-11-05T01:42:52.280Z,100306.56
2022-11-05T01:45:21.889Z,100321.03
2022-11-05T01:48:09.899Z,100325.91
2022-11-05T01:50:47.847Z,100325.41
2022-11-05T01:53:15.371Z,100327.06
2022-11-05T01:55:44.573Z,100330.41
2022-11-05T01:58:14.164Z,100328.69
2022-11-05T02:00:42.457Z,100337.38
2022-11-05T02:03:31.057Z,100334.25
2022-11-05T02:06:12.298Z,100333.16
2022-11-05T02:08:42.820Z,100342.97
2022-11-05T02:11:11.181Z,100338.56
2022-11-05T02:13:38.093Z,100338.31
2022-11-05T02:16:05.211Z,100342.13
2022-11-05T02:18:35.070Z,100355.47
2022-11-05T02:21:08.415Z,100357.75
2022-11-05T02:23:59.029Z,100357.25
2022-11-05T02:27:03.002Z,100359.03
2022-11-05T02:29:29.978Z,100352.53
2022-11-05T02:32:16.161Z,100356.00
2022-11-05T02:34:43.346Z,100357.13
2022-11-05T02:37:17.865Z,100365.59
2022-11-05T02:39:56.428Z,100352.66
2022-11-05T02:42:42.373Z,100345.06
2022-11-05T02:45:15.784Z,100355.25
2022-11-05T02:47:48.929Z,100353.22
2022-11-05T02:50:21.926Z,100353.81
2022-11-05T02:52:48.699Z,100358.66
2022-11-05T02:55:15.680Z,100363.38
2022-11-05T02:57:47.856Z,100369.97
2022-11-05T03:00:33.682Z,100374.16
2022-11-05T03:03:19.060Z,100367.03
2022-11-05T03:06:21.929Z,100373.94
2022-11-05T03:09:08.549Z,100372.03
2022-11-05T03:11:48.023Z,100376.97
2022-11-05T03:14:20.960Z,100375.13
2022-11-05T03:16:56.865Z,100382.56
2022-11-05T03:19:26.846Z,100372.84
2022-11-05T03:22:20.932Z,100387.91
2022-11-05T03:25:03.292Z,100383.72
2022-11-05T03:27:53.944Z,100375.81
2022-11-05T03:30:56.128Z,100380.09
2022-11-05T03:33:38.132Z,100373.91
2022-11-05T03:36:11.677Z,100384.06
2022-11-05T03:38:50.241Z,100390.13
2022-11-05T03:41:17.791Z,100403.75
2022-11-05T03:44:07.971Z,100400.00
2022-11-05T03:46:49.802Z,100393.09
2022-11-05T03:49:20.227Z,100418.47
2022-11-05T03:52:19.976Z,100421.44
2022-11-05T03:55:00.887Z,100427.84
2022-11-05T03:57:37.223Z,100430.06
2022-11-05T04:00:07.262Z,100436.69
2022-11-05T04:03:05.271Z,100437.28
2022-11-05T04:06:25.980Z,100459.00
2022-11-05T04:09:25.553Z,100452.25
2022-11-05T04:12:11.084Z,100459.06
2022-11-05T04:14:39.672Z,100447.38
2022-11-05T04:17:06.547Z,100447.88
2022-11-05T04:19:52.884Z,100440.28
2022-11-05T04:22:38.549Z,100445.13
2022-11-05T04:25:05.777Z,100457.97
2022-11-05T04:27:32.855Z,100460.56
2022-11-05T04:30:18.724Z,100468.88
2022-11-05T04:32:59.609Z,100471.22
2022-11-05T04:35:28.700Z,100463.72
2022-11-05T04:37:55.968Z,100468.63
2022-11-05T04:40:23.420Z,100476.31
2022-11-05T04:43:15.188Z,100475.41
2022-11-05T04:46:09.373Z,100480.06
2022-11-05T04:48:53.871Z,100487.09
2022-11-05T04:51:21.463Z,100482.91
2022-11-05T04:53:48.662Z,100494.63
2022-11-05T04:56:37.037Z,100507.47
2022-11-05T04:59:17.673Z,100446.22
2022-11-05T05:01:44.865Z,100512.81
2022-11-05T05:04:31.988Z,100517.19
2022-11-05T05:07:12.490Z,100521.72
2022-11-05T05:09:39.333Z,100519.13
2022-11-05T05:12:06.413Z,100521.72
2022-11-05T05:14:33.323Z,100519.03
2022-11-05T05:17:00.462Z,100529.72
2022-11-05T05:19:27.595Z,100530.50
2022-11-05T05:21:54.641Z,100537.69
2022-11-05T05:24:21.778Z,100534.44
2022-11-05T05:27:09.831Z,100543.94
2022-11-05T05:29:50.770Z,100549.97
2022-11-05T05:32:18.247Z,100551.53
2022-11-05T05:34:45.526Z,100549.59
2022-11-05T05:37:12.754Z,100551.91
2022-11-05T05:39:39.967Z,100555.13
2022-11-05T05:42:07.477Z,100554.31
2022-11-05T05:44:57.773Z,100561.66
2022-11-05T05:47:29.973Z,100565.00
2022-11-05T05:50:02.318Z,100561.72
2022-11-05T05:52:31.887Z,100562.16
2022-11-05T05:54:58.985Z,100560.97
2022-11-05T05:57:46.019Z,100561.13
2022-11-05T06:00:47.014Z,100565.00
2022-11-05T06:03:48.089Z,100565.44
2022-11-05T06:06:28.518Z,100559.84
2022-11-05T06:08:56.307Z,100573.97
2022-11-05T06:11:24.703Z,100586.34
2022-11-05T06:13:51.973Z,100586.19
2022-11-05T06:16:21.717Z,100584.25
2022-11-05T06:18:48.526Z,100576.50
2022-11-05T06:21:16.985Z,100580.94
2022-11-05T06:23:45.199Z,100576.81
2022-11-05T06:26:32.071Z,100581.13
2022-11-05T06:29:12.757Z,100588.59
2022-11-05T06:31:39.793Z,100594.53
2022-11-05T06:34:06.914Z,100590.31
2022-11-05T06:36:33.967Z,100593.53
2022-11-05T06:39:01.087Z,100593.50
2022-11-05T06:41:28.271Z,100596.69
2022-11-05T06:44:15.316Z,100585.97
2022-11-05T06:46:55.496Z,100589.09
2022-11-05T06:49:26.514Z,100606.75
2022-11-05T06:51:53.466Z,100609.03
2022-11-05T06:54:21.524Z,100607.13
2022-11-05T06:57:09.035Z,100619.25
2022-11-05T07:00:10.760Z,100627.75
2022-11-05T07:03:18.160Z,100629.72
2022-11-05T07:06:01.818Z,100643.97
2022-11-05T07:08:32.870Z,100650.31
2022-11-05T07:11:00.213Z,100663.63
2022-11-05T07:13:27.451Z,100656.13
2022-11-05T07:15:54.512Z,100650.56
2022-11-05T07:18:25.823Z,100664.06
2022-11-05T07:21:23.394Z,100669.66
2022-11-05T07:24:12.334Z,100674.31
2022-11-05T07:27:24.464Z,100671.31
2022-11-05T07:30:06.033Z,100686.06
2022-11-05T07:32:36.839Z,100678.41
2022-11-05T07:35:04.214Z,100682.63
2022-11-05T07:37:31.033Z,100687.31
2022-11-05T07:39:58.050Z,100691.69
2022-11-05T07:42:24.842Z,100697.09
2022-11-05T07:44:51.848Z,100695.25
2022-11-05T07:47:19.188Z,100707.88
2022-11-05T07:49:45.997Z,100707.16
2022-11-05T07:52:12.920Z,100702.13
2022-11-05T07:54:39.812Z,100703.53
2022-11-05T07:57:27.081Z,100711.06
2022-11-05T08:00:29.110Z,100712.69
2022-11-05T08:03:31.197Z,100714.50
2022-11-05T08:06:11.535Z,100701.78
2022-11-05T08:08:38.595Z,100706.66
2022-11-05T08:11:06.958Z,100709.00
2022-11-05T08:13:34.554Z,100714.13
2022-11-05T08:16:02.076Z,100720.94
2022-11-05T08:18:32.464Z,100709.53
2022-11-05T08:21:19.098Z,100714.78
2022-11-05T08:23:59.779Z,100722.34
2022-11-05T08:26:26.643Z,100720.56
2022-11-05T08:28:53.418Z,100720.50
2022-11-05T08:31:20.352Z,100724.38
2022-11-05T08:34:02.677Z,100735.53
2022-11-05T08:36:46.585Z,100734.38
2022-11-05T08:39:16.936Z,100743.44
2022-11-05T08:41:44.168Z,100747.00
2022-11-05T08:44:11.332Z,100756.84
2022-11-05T08:46:41.580Z,100750.59
2022-11-05T08:49:08.835Z,100748.22
2022-11-05T08:51:35.703Z,100745.09
2022-11-05T08:54:02.544Z,100751.56
2022-11-05T08:56:29.382Z,100742.16
2022-11-05T08:58:56.233Z,100755.81
2022-11-05T09:01:23.140Z,100754.03
2022-11-05T09:04:10.205Z,100748.16
2022-11-05T09:07:11.153Z,100754.81
2022-11-05T09:09:51.552Z,100768.72
2022-11-05T09:12:18.403Z,100772.84
2022-11-05T09:14:45.255Z,100774.56
2022-11-05T09:17:19.757Z,100784.91
2022-11-05T09:19:46.802Z,100786.53
2022-11-05T09:22:36.875Z,100789.41
2022-11-05T09:25:19.683Z,100797.44
2022-11-05T09:27:46.693Z,100798.94
2022-11-05T09:30:13.674Z,100794.28
2022-11-05T09:32:40.736Z,100786.88
2022-11-05T09:35:07.904Z,100796.81
2022-11-05T09:37:35.860Z,100794.28
2022-11-05T09:40:03.507Z,100797.09
2022-11-05T09:42:53.133Z,100798.13
2022-11-05T09:45:35.755Z,100801.69
2022-11-05T09:48:11.304Z,100798.72
2022-11-05T09:50:43.330Z,100803.06
2022-11-05T09:53:14.792Z,100811.25
2022-11-05T09:56:04.181Z,100801.06
2022-11-05T09:58:58.230Z,100808.50
2022-11-05T10:01:28.434Z,100803.38
2022-11-05T10:04:20.211Z,100798.72
2022-11-05T10:07:27.174Z,100806.41
2022-11-05T10:10:09.056Z,100804.84
2022-11-05T10:12:47.751Z,100807.31
2022-11-05T10:15:22.713Z,100809.03
2022-11-05T10:17:52.958Z,100811.66
2022-11-05T10:20:50.126Z,100807.47
2022-11-05T10:23:51.184Z,100809.16
2022-11-05T10:26:31.636Z,100802.88
2022-11-05T10:28:58.588Z,100807.84
2022-11-05T10:31:49.167Z,100815.75
2022-11-05T10:34:32.227Z,100810.66
2022-11-05T10:36:59.200Z,100807.78
2022-11-05T10:39:27.934Z,100808.63
2022-11-05T10:42:06.271Z,100809.72
2022-11-05T10:44:36.190Z,100816.84
2022-11-05T10:47:26.162Z,100802.09
2022-11-05T10:50:11.484Z,100804.44
2022-11-05T10:52:40.047Z,100804.22
2022-11-05T10:55:22.995Z,100805.53
2022-11-05T10:58:37.325Z,100801.91
2022-11-05T11:01:10.546Z,100797.22
2022-11-05T11:03:58.207Z,100799.13
2022-11-05T11:06:56.352Z,100803.84
2022-11-05T11:09:37.233Z,100797.38
2022-11-05T11:12:22.955Z,100801.44
2022-11-05T11:15:13.149Z,100804.72
2022-11-05T11:17:39.960Z,100799.75
2022-11-05T11:20:39.194Z,100801.59
2022-11-05T11:23:21.824Z,100795.41
2022-11-05T11:25:52.088Z,100793.00
2022-11-05T11:28:46.268Z,100783.19
2022-11-05T11:31:50.210Z,100781.75
2022-11-05T11:34:36.181Z,100778.09
2022-11-05T11:37:19.587Z,100777.97
2022-11-05T11:39:49.184Z,100772.00
2022-11-05T11:42:47.226Z,100774.88
2022-11-05T11:45:30.280Z,100776.69
2022-11-05T11:48:21.233Z,100782.84
2022-11-05T11:51:31.200Z,100772.38
2022-11-05T11:54:24.812Z,100781.31
2022-11-05T11:56:54.048Z,100777.78
2022-11-05T12:00:01.805Z,100776.47
2022-11-05T12:02:30.309Z,100776.94
2022-11-05T12:05:38.210Z,100776.16
2022-11-05T12:09:02.051Z,100770.34
2022-11-05T12:11:46.239Z,100771.09
2022-11-05T12:14:25.020Z,100766.84
2022-11-05T12:17:12.259Z,100764.06
2022-11-05T12:20:30.216Z,100764.03
2022-11-05T12:23:34.273Z,100754.19
2022-11-05T12:26:37.293Z,100760.81
2022-11-05T12:29:18.950Z,100755.53
2022-11-05T12:31:46.303Z,100747.69
2022-11-05T12:34:19.870Z,100751.78
2022-11-05T12:37:18.304Z,100755.63
2022-11-05T12:40:05.054Z,100744.38
2022-11-05T12:42:58.243Z,100743.63
2022-11-05T12:45:48.160Z,100741.66
2022-11-05T12:48:37.035Z,100733.06
2022-11-05T12:51:11.216Z,100735.88
2022-11-05T12:53:56.298Z,100728.88
2022-11-05T12:56:32.335Z,100741.94
2022-11-05T12:59:06.336Z,100739.25
2022-11-05T13:01:36.739Z,100735.94
2022-11-05T13:04:24.312Z,100730.69
2022-11-05T13:07:27.211Z,100744.06
2022-11-05T13:10:35.420Z,100739.34
2022-11-05T13:13:48.359Z,100744.50
2022-11-05T13:16:30.860Z,100746.16
2022-11-05T13:19:15.004Z,100741.94
2022-11-05T13:22:05.274Z,100729.53
2022-11-05T13:25:09.265Z,100741.66
2022-11-05T13:27:56.024Z,100743.41
2022-11-05T13:30:25.575Z,100738.19
2022-11-05T13:32:59.140Z,100734.53
2022-11-05T13:35:37.862Z,100747.72
2022-11-05T13:38:26.310Z,100745.97
2022-11-05T13:41:02.683Z,100742.56
2022-11-05T13:43:56.500Z,100735.41
2022-11-05T13:46:49.782Z,100728.28
2022-11-05T13:49:25.887Z,100731.81
2022-11-05T13:52:25.353Z,100730.88
2022-11-05T13:55:08.943Z,100733.75
2022-11-05T13:57:45.202Z,100735.31
2022-11-05T14:00:23.559Z,100742.22
2022-11-05T14:03:13.632Z,100737.75
2022-11-05T14:06:03.534Z,100734.13
2022-11-05T14:09:13.445Z,100733.44
2022-11-05T14:12:14.855Z,100731.53
2022-11-05T14:15:29.307Z,100731.47
2022-11-05T14:18:48.360Z,100729.59
2022-11-05T14:22:08.751Z,100740.09
2022-11-05T14:24:50.337Z,100739.19
2022-11-05T14:27:17.164Z,100743.66
2022-11-05T14:29:44.028Z,100743.50
2022-11-05T14:32:17.872Z,100744.44
2022-11-05T14:34:47.898Z,100737.16
2022-11-05T14:37:22.813Z,100742.47
2022-11-05T14:39:49.932Z,100741.56
2022-11-05T14:42:20.749Z,100729.38
2022-11-05T14:44:57.226Z,100744.38
2022-11-05T14:47:49.473Z,100742.34
2022-11-05T14:50:29.797Z,100750.13
2022-11-05T14:53:37.323Z,100750.94
2022-11-05T14:56:19.176Z,100751.75
2022-11-05T14:58:46.780Z,100755.94
2022-11-05T15:01:14.252Z,100743.56
2022-11-05T15:04:15.615Z,100746.94
2022-11-05T15:07:24.340Z,100749.63
2022-11-05T15:10:30.435Z,100751.34
2022-11-05T15:13:24.956Z,100747.75
2022-11-05T15:15:52.549Z,100753.72
2022-11-05T15:18:33.072Z,100754.56
2022-11-05T15:21:21.750Z,100756.06
2022-11-05T15:24:22.947Z,100759.47
2022-11-05T15:27:19.556Z,100762.03
2022-11-05T15:29:47.010Z,100764.50
2022-11-05T15:32:18.839Z,100768.78
2022-11-05T15:34:53.276Z,100767.78
2022-11-05T15:37:23.872Z,100754.50
2022-11-05T15:39:52.137Z,100758.69
2022-11-05T15:42:22.856Z,100762.03
2022-11-05T15:44:54.000Z,100766.28
2022-11-05T15:47:27.002Z,100767.34
2022-11-05T15:49:54.097Z,100770.59
2022-11-05T15:52:25.864Z,100771.16
2022-11-05T15:55:11.977Z,100774.16
2022-11-05T15:57:40.624Z,100778.13
2022-11-05T16:00:16.645Z,100777.59
2022-11-05T16:03:16.172Z,100778.97
2022-11-05T16:05:57.697Z,100783.66
2022-11-05T16:08:44.628Z,100778.84
2022-11-05T16:11:26.487Z,100780.91
2022-11-05T16:13:53.957Z,100781.63
2022-11-05T16:16:46.871Z,100791.97
2022-11-05T16:19:50.129Z,100797.13
2022-11-05T16:22:58.452Z,100792.84
2022-11-05T16:25:41.058Z,100802.00
2022-11-05T16:28:18.248Z,100796.03
2022-11-05T16:31:00.162Z,100810.09
2022-11-05T16:33:58.398Z,100798.34
2022-11-05T16:36:39.260Z,100803.63
2022-11-05T16:39:06.325Z,100810.91
2022-11-05T16:41:42.582Z,100812.72
2022-11-05T16:44:09.410Z,100814.44
2022-11-05T16:46:38.212Z,100825.66
2022-11-05T16:49:07.202Z,100819.03
2022-11-05T16:51:54.530Z,100830.25
2022-11-05T16:54:55.749Z,100836.38
2022-11-05T16:57:36.199Z,100841.44
2022-11-05T17:00:07.129Z,100844.78
2022-11-05T17:02:54.534Z,100839.81
2022-11-05T17:05:44.852Z,100850.69
2022-11-05T17:08:12.855Z,100847.31
2022-11-05T17:10:40.004Z,100849.28
2022-11-05T17:13:08.459Z,100852.09
2022-11-05T17:15:55.886Z,100852.59
2022-11-05T17:18:36.170Z,100858.41
2022-11-05T17:21:24.730Z,100859.44
2022-11-05T17:24:25.417Z,100874.25
2022-11-05T17:27:06.432Z,100878.63
2022-11-05T17:29:33.684Z,100879.78
2022-11-05T17:32:00.865Z,100874.56
2022-11-05T17:34:48.622Z,100873.50
2022-11-05T17:37:29.284Z,100884.97
2022-11-05T17:40:21.960Z,100883.19
2022-11-05T17:43:02.330Z,100893.03
2022-11-05T17:45:29.461Z,100888.50
2022-11-05T17:47:56.661Z,100899.75
2022-11-05T17:50:24.441Z,100898.44
2022-11-05T17:52:51.685Z,100900.19
2022-11-05T17:55:18.691Z,100904.97
2022-11-05T17:57:49.959Z,100914.44
2022-11-05T18:00:18.017Z,100914.00
2022-11-05T18:03:06.573Z,100911.16
2022-11-05T18:05:47.194Z,100918.34
2022-11-05T18:08:15.142Z,100913.44
2022-11-05T18:10:42.513Z,100928.28
2022-11-05T18:13:11.257Z,100921.66
2022-11-05T18:15:41.665Z,100922.38
2022-11-05T18:18:09.904Z,100929.78
2022-11-05T18:20:57.580Z,100926.59
2022-11-05T18:23:38.016Z,100938.16
2022-11-05T18:26:09.115Z,100936.75
2022-11-05T18:28:56.442Z,100934.59
2022-11-05T18:31:57.588Z,100935.81
2022-11-05T18:34:58.661Z,100939.66
2022-11-05T18:37:59.558Z,100943.16
2022-11-05T18:40:39.936Z,100945.28
2022-11-05T18:43:06.779Z,100948.66
2022-11-05T18:45:33.816Z,100949.22
2022-11-05T18:48:01.967Z,100948.19
2022-11-05T18:50:29.341Z,100947.03
2022-11-05T18:53:16.481Z,100955.72
2022-11-05T18:55:57.004Z,100950.78
2022-11-05T18:58:23.801Z,100949.09
2022-11-05T19:01:10.526Z,100946.06
2022-11-05T19:04:11.491Z,100955.25
2022-11-05T19:06:52.776Z,100961.84
2022-11-05T19:09:22.514Z,100959.72
2022-11-05T19:11:49.733Z,100953.59
2022-11-05T19:14:16.518Z,100965.28
2022-11-05T19:16:43.508Z,100962.25
2022-11-05T19:19:10.350Z,100967.03
2022-11-05T19:21:58.304Z,100975.41
2022-11-05T19:24:39.215Z,100970.69
2022-11-05T19:27:06.481Z,100974.63
2022-11-05T19:29:33.793Z,100978.56
2022-11-05T19:32:01.747Z,100979.31
2022-11-05T19:34:50.778Z,100989.53
2022-11-05T19:37:51.580Z,100980.78
2022-11-05T19:40:32.135Z,100994.97
2022-11-05T19:42:59.192Z,100990.00
2022-11-05T19:45:44.239Z,100992.44
2022-11-05T19:48:19.208Z,100994.06
2022-11-05T19:50:47.420Z,100998.59
2022-11-05T19:53:14.344Z,101003.81
2022-11-05T19:55:41.374Z,101004.59
2022-11-05T19:58:09.411Z,101001.09
2022-11-05T20:00:38.333Z,101002.56
2022-11-05T20:03:25.747Z,101002.81
2022-11-05T20:06:30.995Z,101008.13
2022-11-05T20:09:27.428Z,101010.75
2022-11-05T20:11:56.280Z,101016.22
2022-11-05T20:14:24.908Z,101029.59
2022-11-05T20:16:52.118Z,101031.72
2022-11-05T20:19:22.037Z,101034.03
2022-11-05T20:22:12.596Z,101036.78
2022-11-05T20:24:53.000Z,101036.19
2022-11-05T20:27:22.057Z,101046.94
2022-11-05T20:29:49.470Z,101056.53
2022-11-05T20:32:18.048Z,101058.72
2022-11-05T20:34:45.845Z,101058.34
2022-11-05T20:37:13.902Z,101059.41
2022-11-05T20:40:02.058Z,101067.03
2022-11-05T20:43:04.078Z,101070.03
2022-11-05T20:45:44.690Z,101075.41
2022-11-05T20:48:14.234Z,101075.84
2022-11-05T20:50:45.900Z,101071.13
2022-11-05T20:53:16.102Z,101082.91
2022-11-05T20:55:44.522Z,101082.97
2022-11-05T20:58:14.609Z,101070.53
2022-11-05T21:00:48.671Z,101085.81
2022-11-05T21:03:35.542Z,101090.13
2022-11-05T21:06:36.555Z,101096.66
2022-11-05T21:09:19.408Z,101097.78
2022-11-05T21:12:07.475Z,101114.53
2022-11-05T21:14:35.530Z,101106.66
2022-11-05T21:17:02.906Z,101112.53
2022-11-05T21:19:34.316Z,101114.81
2022-11-05T21:22:04.165Z,101127.78
2022-11-05T21:24:32.744Z,101126.31
2022-11-05T21:27:01.149Z,101125.03
2022-11-05T21:29:28.771Z,101123.91
2022-11-05T21:31:56.538Z,101127.50
2022-11-05T21:34:24.103Z,101127.34
2022-11-05T21:36:51.690Z,101124.66
2022-11-05T21:39:41.605Z,101133.97
2022-11-05T21:42:42.935Z,101128.91
2022-11-05T21:45:43.859Z,101128.03
2022-11-05T21:48:25.557Z,101133.06
2022-11-05T21:51:13.298Z,101134.09
2022-11-05T21:54:00.862Z,101131.28
2022-11-05T21:56:47.294Z,101136.63
2022-11-05T21:59:37.850Z,101129.41
2022-11-05T22:02:05.448Z,101135.13
2022-11-05T22:05:12.645Z,101142.06
2022-11-05T22:08:16.716Z,101140.03
2022-11-05T22:10:44.091Z,101144.78
2022-11-05T22:13:12.228Z,101141.53
2022-11-05T22:15:39.559Z,101145.03
2022-11-05T22:18:07.407Z,101139.72
2022-11-05T22:20:54.663Z,101149.81
2022-11-05T22:23:55.619Z,101145.44
2022-11-05T22:26:36.546Z,101152.31
2022-11-05T22:29:03.836Z,101144.50
2022-11-05T22:31:35.988Z,101147.78
2022-11-05T22:36:58.920Z,101145.09
2022-11-05T22:39:45.592Z,101147.59
2022-11-05T22:42:46.776Z,101150.28
2022-11-05T22:45:27.209Z,101156.66
2022-11-05T22:47:54.008Z,101155.34
2022-11-05T22:50:20.967Z,101167.84
2022-11-05T22:52:48.243Z,101160.50
2022-11-05T22:55:15.112Z,101169.88
2022-11-05T22:57:42.047Z,101148.47
2022-11-05T23:00:28.284Z,101170.25
2022-11-05T23:03:05.878Z,101166.66
2022-11-05T23:05:33.450Z,101159.84
2022-11-05T23:08:38.010Z,101160.56
2022-11-05T23:11:42.004Z,101152.19
2022-11-05T23:14:27.523Z,101150.63
2022-11-05T23:17:32.640Z,101154.25
2022-11-05T23:20:53.610Z,101147.88
2022-11-05T23:24:12.635Z,101146.22
2022-11-05T23:26:54.010Z,101139.78
2022-11-05T23:29:25.694Z,101151.88
2022-11-05T23:32:11.798Z,101153.97
2022-11-05T23:34:38.967Z,101148.63
2022-11-05T23:37:24.909Z,101160.34
2022-11-05T23:39:52.259Z,101175.91
2022-11-05T23:42:37.966Z,101178.38
2022-11-05T23:45:24.121Z,101172.38
2022-11-05T23:48:09.760Z,101177.47
2022-11-05T23:50:39.780Z,101186.72
2022-11-05T23:53:08.681Z,101184.41
2022-11-05T23:55:36.510Z,101190.44
2022-11-05T23:58:18.496Z,101194.97
